createdAt,value
2017-02-05T00:00:44.117Z,923.29
2017-02-05T00:01:58.476Z,923.32
2017-02-05T00:03:12.194Z,923.3
2017-02-05T00:04:26.528Z,923.29
2017-02-05T00:05:40.877Z,923.29
2017-02-05T00:06:55.284Z,923.28
2017-02-05T00:08:08.988Z,923.22
2017-02-05T00:09:23.349Z,923.22
2017-02-05T00:10:37.691Z,923.23
2017-02-05T00:11:52.027Z,923.19
2017-02-05T00:13:06.406Z,923.15
2017-02-05T00:14:20.779Z,923.2
2017-02-05T00:15:34.484Z,923.23
2017-02-05T00:16:48.839Z,923.27
2017-02-05T00:18:03.189Z,923.31
2017-02-05T00:19:17.569Z,923.32
2017-02-05T00:20:31.321Z,923.33
2017-02-05T00:21:45.687Z,923.29
2017-02-05T00:23:00.014Z,923.26
2017-02-05T00:24:14.373Z,923.28
2017-02-05T00:25:28.100Z,923.22
2017-02-05T00:26:41.869Z,923.24
2017-02-05T00:27:56.297Z,923.19
2017-02-05T00:29:10.026Z,923.21
2017-02-05T00:30:24.401Z,923.17
2017-02-05T00:31:38.761Z,923.19
2017-02-05T00:32:53.158Z,923.15
2017-02-05T00:34:07.559Z,923.18
2017-02-05T00:35:21.945Z,923.14
2017-02-05T00:36:36.313Z,923.16
2017-02-05T00:37:50.696Z,923.18
2017-02-05T00:39:05.085Z,923.23
2017-02-05T00:40:18.801Z,923.24
2017-02-05T00:41:32.495Z,923.23
2017-02-05T00:42:46.847Z,923.25
2017-02-05T00:44:01.181Z,923.22
2017-02-05T00:45:14.875Z,923.3
2017-02-05T00:46:27.948Z,923.34
2017-02-05T00:47:41.720Z,923.33
2017-02-05T00:48:56.062Z,923.33
2017-02-05T00:50:10.463Z,923.35
2017-02-05T00:51:24.814Z,923.33
2017-02-05T00:52:39.131Z,923.3
2017-02-05T00:53:53.539Z,923.29
2017-02-05T00:55:07.888Z,923.32
2017-02-05T00:56:22.237Z,923.26
2017-02-05T00:57:36.614Z,923.27
2017-02-05T00:58:50.958Z,923.28
2017-02-05T01:00:04.684Z,923.28
2017-02-05T01:01:19.028Z,923.27
2017-02-05T01:02:33.359Z,923.32
2017-02-05T01:03:47.754Z,923.27
2017-02-05T01:05:02.145Z,923.3
2017-02-05T01:06:16.520Z,923.37
2017-02-05T01:07:30.908Z,923.33
2017-02-05T01:08:45.299Z,923.31
2017-02-05T01:10:00.182Z,923.33
2017-02-05T01:11:14.546Z,923.29
2017-02-05T01:12:28.928Z,923.29
2017-02-05T01:13:43.292Z,923.28
2017-02-05T01:14:57.661Z,923.27
2017-02-05T01:16:11.386Z,923.27
2017-02-05T01:17:25.769Z,923.27
2017-02-05T01:18:39.475Z,923.25
2017-02-05T01:19:53.875Z,923.25
2017-02-05T01:21:08.228Z,923.26
2017-02-05T01:22:22.593Z,923.24
2017-02-05T01:23:36.322Z,923.29
2017-02-05T01:24:50.687Z,923.32
2017-02-05T01:26:05.060Z,923.32
2017-02-05T01:27:19.421Z,923.33
2017-02-05T01:28:33.815Z,923.33
2017-02-05T01:29:48.198Z,923.35
2017-02-05T01:31:02.561Z,923.38
2017-02-05T01:32:16.898Z,923.39
2017-02-05T01:33:31.258Z,923.34
2017-02-05T01:34:45.780Z,923.35
2017-02-05T01:36:00.237Z,923.37
2017-02-05T01:37:14.595Z,923.35
2017-02-05T01:38:28.970Z,923.34
2017-02-05T01:39:43.346Z,923.29
2017-02-05T01:40:57.708Z,923.3
2017-02-05T01:42:10.795Z,923.27
2017-02-05T01:43:25.169Z,923.29
2017-02-05T01:44:39.548Z,923.26
2017-02-05T01:45:53.945Z,923.25
2017-02-05T01:47:08.297Z,923.23
2017-02-05T01:48:22.700Z,923.25
2017-02-05T01:49:36.436Z,923.19
2017-02-05T01:50:50.764Z,923.22
2017-02-05T01:52:04.474Z,923.23
2017-02-05T01:53:18.914Z,923.27
2017-02-05T01:54:32.658Z,923.27
2017-02-05T01:55:46.363Z,923.26
2017-02-05T01:57:00.731Z,923.25
2017-02-05T01:58:13.813Z,923.28
2017-02-05T01:59:28.385Z,923.24
2017-02-05T02:00:42.091Z,923.25
2017-02-05T02:01:56.462Z,923.26
2017-02-05T02:03:09.544Z,923.31
2017-02-05T02:04:23.911Z,923.32
2017-02-05T02:05:37.667Z,923.35
2017-02-05T02:06:52.038Z,923.39
2017-02-05T02:08:06.425Z,923.44
2017-02-05T02:09:20.166Z,923.43
2017-02-05T02:10:34.561Z,923.4
2017-02-05T02:11:48.954Z,923.38
2017-02-05T02:13:03.289Z,923.36
2017-02-05T02:14:17.621Z,923.38
2017-02-05T02:15:32.021Z,923.37
2017-02-05T02:16:45.739Z,923.38
2017-02-05T02:18:00.076Z,923.4
2017-02-05T02:19:14.479Z,923.39
2017-02-05T02:20:28.868Z,923.43
2017-02-05T02:21:42.604Z,923.45
2017-02-05T02:22:56.978Z,923.38
2017-02-05T02:24:11.336Z,923.42
2017-02-05T02:25:25.695Z,923.38
2017-02-05T02:26:40.049Z,923.34
2017-02-05T02:27:54.414Z,923.32
2017-02-05T02:29:08.807Z,923.33
2017-02-05T02:30:23.220Z,923.31
2017-02-05T02:31:37.615Z,923.29
2017-02-05T02:32:51.967Z,923.29
2017-02-05T02:34:06.329Z,923.23
2017-02-05T02:35:20.685Z,923.22
2017-02-05T02:36:35.015Z,923.2
2017-02-05T02:37:48.779Z,923.16
2017-02-05T02:39:03.152Z,923.12
2017-02-05T02:40:17.492Z,923.13
2017-02-05T02:41:31.846Z,923.16
2017-02-05T02:42:45.593Z,923.14
2017-02-05T02:43:59.934Z,923.15
2017-02-05T02:45:14.322Z,923.17
2017-02-05T02:46:28.726Z,923.17
2017-02-05T02:47:42.457Z,923.17
2017-02-05T02:48:56.792Z,923.18
2017-02-05T02:50:11.140Z,923.17
2017-02-05T02:51:25.508Z,923.12
2017-02-05T02:52:39.904Z,923.13
2017-02-05T02:53:54.267Z,923.08
2017-02-05T02:55:08.630Z,923.08
2017-02-05T02:56:22.973Z,923.07
2017-02-05T02:57:37.346Z,923.07
2017-02-05T02:58:51.735Z,923.06
2017-02-05T03:00:06.106Z,923.04
2017-02-05T03:01:19.840Z,923.06
2017-02-05T03:02:32.882Z,923.11
2017-02-05T03:03:47.236Z,923.11
2017-02-05T03:05:01.605Z,923.09
2017-02-05T03:06:15.426Z,923.07
2017-02-05T03:07:29.795Z,923.08
2017-02-05T03:08:44.158Z,923.06
2017-02-05T03:09:58.535Z,923.01
2017-02-05T03:11:12.898Z,923.04
2017-02-05T03:12:26.652Z,923.02
2017-02-05T03:13:41.029Z,923.04
2017-02-05T03:14:55.404Z,922.99
2017-02-05T03:16:09.734Z,922.99
2017-02-05T03:17:24.112Z,922.97
2017-02-05T03:18:38.487Z,922.97
2017-02-05T03:19:52.856Z,922.99
2017-02-05T03:21:06.615Z,923
2017-02-05T03:22:21.014Z,923
2017-02-05T03:23:35.355Z,923
2017-02-05T03:24:49.727Z,923.01
2017-02-05T03:26:04.136Z,922.97
2017-02-05T03:27:18.610Z,923.02
2017-02-05T03:28:32.980Z,923
2017-02-05T03:29:47.405Z,922.99
2017-02-05T03:31:01.761Z,922.97
2017-02-05T03:32:15.461Z,922.99
2017-02-05T03:33:29.821Z,922.98
2017-02-05T03:34:44.217Z,922.96
2017-02-05T03:35:58.640Z,922.93
2017-02-05T03:37:13.077Z,922.89
2017-02-05T03:38:27.434Z,922.92
2017-02-05T03:39:41.862Z,922.85
2017-02-05T03:40:56.233Z,922.9
2017-02-05T03:42:10.628Z,922.86
2017-02-05T03:43:24.969Z,922.87
2017-02-05T03:44:39.369Z,922.89
2017-02-05T03:45:52.476Z,922.9
2017-02-05T03:47:06.955Z,922.9
2017-02-05T03:48:21.300Z,922.86
2017-02-05T03:49:35.655Z,922.8
2017-02-05T03:50:50.027Z,922.8
2017-02-05T03:52:04.419Z,922.82
2017-02-05T03:53:17.498Z,922.79
2017-02-05T03:54:31.205Z,922.79
2017-02-05T03:55:45.579Z,922.76
2017-02-05T03:56:59.932Z,922.69
2017-02-05T03:58:14.267Z,922.67
2017-02-05T03:59:28.616Z,922.65
2017-02-05T04:00:42.976Z,922.65
2017-02-05T04:01:57.373Z,922.65
2017-02-05T04:03:11.152Z,922.65
2017-02-05T04:04:25.497Z,922.65
2017-02-05T04:05:39.227Z,922.65
2017-02-05T04:06:53.584Z,922.68
2017-02-05T04:08:08.163Z,922.74
2017-02-05T04:09:22.524Z,922.77
2017-02-05T04:10:36.860Z,922.77
2017-02-05T04:11:51.247Z,922.81
2017-02-05T04:13:05.587Z,922.78
2017-02-05T04:14:19.302Z,922.72
2017-02-05T04:15:33.665Z,922.73
2017-02-05T04:16:48.048Z,922.71
2017-02-05T04:18:01.774Z,922.67
2017-02-05T04:19:15.507Z,922.68
2017-02-05T04:20:29.863Z,922.65
2017-02-05T04:21:43.579Z,922.67
2017-02-05T04:22:57.947Z,922.68
2017-02-05T04:24:11.696Z,922.69
2017-02-05T04:25:26.072Z,922.62
2017-02-05T04:26:40.444Z,922.57
2017-02-05T04:27:54.798Z,922.58
2017-02-05T04:29:09.455Z,922.59
2017-02-05T04:30:23.883Z,922.56
2017-02-05T04:31:37.601Z,922.59
2017-02-05T04:32:51.959Z,922.58
2017-02-05T04:34:06.314Z,922.56
2017-02-05T04:35:20.064Z,922.59
2017-02-05T04:36:34.435Z,922.61
2017-02-05T04:37:48.822Z,922.58
2017-02-05T04:39:03.194Z,922.56
2017-02-05T04:40:17.571Z,922.55
2017-02-05T04:41:31.933Z,922.6
2017-02-05T04:42:46.306Z,922.61
2017-02-05T04:44:00.664Z,922.63
2017-02-05T04:45:14.392Z,922.65
2017-02-05T04:46:28.759Z,922.61
2017-02-05T04:47:42.484Z,922.61
2017-02-05T04:48:56.846Z,922.63
2017-02-05T04:50:11.246Z,922.64
2017-02-05T04:51:25.603Z,922.61
2017-02-05T04:52:39.971Z,922.65
2017-02-05T04:53:54.295Z,922.64
2017-02-05T04:55:08.638Z,922.67
2017-02-05T04:56:22.979Z,922.68
2017-02-05T04:57:37.358Z,922.67
2017-02-05T04:58:51.747Z,922.67
2017-02-05T05:00:05.507Z,922.64
2017-02-05T05:01:19.911Z,922.7
2017-02-05T05:02:34.280Z,922.73
2017-02-05T05:03:48.648Z,922.72
2017-02-05T05:05:02.378Z,922.72
2017-02-05T05:06:16.746Z,922.68
2017-02-05T05:07:31.114Z,922.67
2017-02-05T05:08:45.510Z,922.69
2017-02-05T05:09:59.867Z,922.69
2017-02-05T05:11:12.920Z,922.65
2017-02-05T05:12:27.286Z,922.68
2017-02-05T05:13:41.622Z,922.67
2017-02-05T05:14:56.023Z,922.69
2017-02-05T05:16:09.787Z,922.63
2017-02-05T05:17:24.143Z,922.6
2017-02-05T05:18:38.486Z,922.59
2017-02-05T05:19:52.860Z,922.61
2017-02-05T05:21:07.246Z,922.62
2017-02-05T05:22:20.948Z,922.6
2017-02-05T05:23:35.318Z,922.62
2017-02-05T05:24:49.662Z,922.65
2017-02-05T05:26:03.353Z,922.66
2017-02-05T05:27:17.735Z,922.64
2017-02-05T05:28:32.120Z,922.62
2017-02-05T05:29:46.508Z,922.63
2017-02-05T05:31:00.872Z,922.62
2017-02-05T05:32:15.224Z,922.62
2017-02-05T05:33:29.601Z,922.63
2017-02-05T05:34:43.967Z,922.64
2017-02-05T05:35:58.353Z,922.64
2017-02-05T05:37:12.096Z,922.63
2017-02-05T05:38:25.812Z,922.65
2017-02-05T05:39:40.180Z,922.62
2017-02-05T05:40:54.539Z,922.69
2017-02-05T05:42:08.895Z,922.64
2017-02-05T05:43:23.253Z,922.65
2017-02-05T05:44:37.629Z,922.65
2017-02-05T05:45:52.006Z,922.56
2017-02-05T05:47:06.407Z,922.56
2017-02-05T05:48:20.743Z,922.57
2017-02-05T05:49:35.090Z,922.52
2017-02-05T05:50:48.831Z,922.55
2017-02-05T05:52:03.201Z,922.56
2017-02-05T05:53:16.911Z,922.63
2017-02-05T05:54:31.304Z,922.61
2017-02-05T05:55:45.660Z,922.61
2017-02-05T05:57:00.030Z,922.65
2017-02-05T05:58:14.422Z,922.64
2017-02-05T05:59:28.782Z,922.64
2017-02-05T06:00:43.126Z,922.63
2017-02-05T06:01:57.522Z,922.57
2017-02-05T06:03:11.895Z,922.56
2017-02-05T06:04:26.258Z,922.58
2017-02-05T06:05:39.980Z,922.59
2017-02-05T06:06:54.311Z,922.58
2017-02-05T06:08:08.673Z,922.63
2017-02-05T06:09:23.041Z,922.6
2017-02-05T06:10:37.407Z,922.61
2017-02-05T06:11:51.806Z,922.57
2017-02-05T06:13:05.542Z,922.57
2017-02-05T06:14:19.949Z,922.54
2017-02-05T06:15:34.195Z,922.52
2017-02-05T06:16:48.556Z,922.55
2017-02-05T06:18:02.912Z,922.51
2017-02-05T06:19:17.307Z,922.5
2017-02-05T06:20:31.691Z,922.47
2017-02-05T06:21:46.060Z,922.5
2017-02-05T06:23:00.426Z,922.48
2017-02-05T06:24:14.148Z,922.5
2017-02-05T06:25:28.534Z,922.5
2017-02-05T06:26:42.901Z,922.51
2017-02-05T06:27:57.273Z,922.54
2017-02-05T06:29:11.675Z,922.5
2017-02-05T06:30:25.428Z,922.53
2017-02-05T06:31:39.759Z,922.57
2017-02-05T06:32:54.121Z,922.53
2017-02-05T06:34:08.513Z,922.58
2017-02-05T06:35:22.866Z,922.59
2017-02-05T06:36:37.269Z,922.62
2017-02-05T06:37:51.008Z,922.65
2017-02-05T06:39:05.395Z,922.66
2017-02-05T06:40:19.807Z,922.72
2017-02-05T06:41:34.172Z,922.68
2017-02-05T06:42:47.885Z,922.7
2017-02-05T06:44:02.295Z,922.73
2017-02-05T06:45:16.032Z,922.77
2017-02-05T06:46:30.382Z,922.78
2017-02-05T06:47:44.716Z,922.78
2017-02-05T06:48:59.092Z,922.82
2017-02-05T06:50:13.482Z,922.86
2017-02-05T06:51:27.896Z,922.82
2017-02-05T06:52:42.256Z,922.87
2017-02-05T06:53:56.604Z,922.84
2017-02-05T06:55:10.961Z,922.84
2017-02-05T06:56:25.329Z,922.86
2017-02-05T06:57:39.756Z,922.87
2017-02-05T06:58:54.138Z,922.89
2017-02-05T07:00:07.843Z,922.84
2017-02-05T07:01:21.566Z,922.86
2017-02-05T07:02:35.276Z,922.86
2017-02-05T07:03:49.607Z,922.84
2017-02-05T07:05:03.988Z,922.89
2017-02-05T07:06:18.376Z,922.84
2017-02-05T07:07:32.708Z,922.87
2017-02-05T07:08:47.095Z,922.8
2017-02-05T07:10:01.413Z,922.84
2017-02-05T07:11:15.123Z,922.85
2017-02-05T07:12:29.515Z,922.82
2017-02-05T07:13:43.899Z,922.84
2017-02-05T07:14:58.269Z,922.83
2017-02-05T07:16:12.616Z,922.84
2017-02-05T07:17:26.981Z,922.79
2017-02-05T07:18:41.374Z,922.82
2017-02-05T07:19:55.775Z,922.82
2017-02-05T07:21:10.171Z,922.87
2017-02-05T07:22:24.571Z,922.86
2017-02-05T07:23:38.269Z,922.88
2017-02-05T07:24:52.570Z,922.93
2017-02-05T07:26:06.967Z,922.91
2017-02-05T07:27:20.701Z,922.9
2017-02-05T07:28:35.060Z,922.94
2017-02-05T07:29:49.398Z,922.93
2017-02-05T07:31:03.733Z,922.85
2017-02-05T07:32:17.441Z,922.88
2017-02-05T07:33:31.812Z,922.84
2017-02-05T07:34:45.746Z,922.88
2017-02-05T07:36:00.131Z,922.87
2017-02-05T07:37:14.489Z,922.86
2017-02-05T07:38:28.836Z,922.85
2017-02-05T07:39:43.203Z,922.86
2017-02-05T07:40:57.602Z,922.88
2017-02-05T07:42:11.957Z,922.89
2017-02-05T07:43:26.352Z,922.93
2017-02-05T07:44:40.713Z,922.93
2017-02-05T07:45:55.076Z,922.94
2017-02-05T07:47:08.752Z,922.95
2017-02-05T07:48:23.127Z,922.98
2017-02-05T07:49:36.227Z,923.01
2017-02-05T07:50:50.583Z,922.98
2017-02-05T07:52:04.960Z,922.97
2017-02-05T07:53:19.353Z,922.93
2017-02-05T07:54:33.723Z,922.95
2017-02-05T07:55:48.086Z,922.9
2017-02-05T07:57:02.442Z,922.92
2017-02-05T07:58:16.842Z,922.95
2017-02-05T07:59:31.230Z,922.92
2017-02-05T08:00:45.743Z,922.94
2017-02-05T08:02:00.097Z,922.98
2017-02-05T08:03:14.488Z,922.98
2017-02-05T08:04:28.860Z,922.99
2017-02-05T08:05:43.243Z,923
2017-02-05T08:06:57.618Z,923
2017-02-05T08:08:10.700Z,922.99
2017-02-05T08:09:25.089Z,923.01
2017-02-05T08:10:39.493Z,923
2017-02-05T08:11:53.890Z,923.06
2017-02-05T08:13:08.312Z,923.09
2017-02-05T08:14:22.655Z,923.09
2017-02-05T08:15:37.026Z,923.04
2017-02-05T08:16:51.419Z,923.07
2017-02-05T08:18:05.756Z,923.03
2017-02-05T08:19:18.866Z,923.02
2017-02-05T08:20:33.251Z,923.04
2017-02-05T08:21:47.600Z,923.04
2017-02-05T08:23:01.978Z,923.07
2017-02-05T08:24:15.065Z,923.08
2017-02-05T08:25:28.863Z,923.12
2017-02-05T08:26:43.222Z,923.18
2017-02-05T08:27:57.636Z,923.16
2017-02-05T08:29:11.354Z,923.14
2017-02-05T08:30:25.753Z,923.12
2017-02-05T08:31:40.096Z,923.12
2017-02-05T08:32:54.450Z,923.1
2017-02-05T08:34:08.791Z,923.07
2017-02-05T08:35:23.252Z,923.12
2017-02-05T08:36:37.587Z,923.11
2017-02-05T08:37:51.971Z,923.15
2017-02-05T08:39:05.730Z,923.19
2017-02-05T08:40:20.118Z,923.15
2017-02-05T08:41:33.860Z,923.15
2017-02-05T08:42:48.231Z,923.17
2017-02-05T08:44:02.596Z,923.15
2017-02-05T08:45:16.927Z,923.14
2017-02-05T08:46:30.626Z,923.16
2017-02-05T08:47:45.025Z,923.16
2017-02-05T08:48:59.383Z,923.17
2017-02-05T08:50:13.731Z,923.16
2017-02-05T08:51:28.096Z,923.17
2017-02-05T08:52:41.846Z,923.2
2017-02-05T08:53:56.467Z,923.22
2017-02-05T08:55:10.207Z,923.2
2017-02-05T08:56:23.922Z,923.24
2017-02-05T08:57:38.277Z,923.24
2017-02-05T08:58:52.646Z,923.23
2017-02-05T09:00:07.034Z,923.22
2017-02-05T09:01:20.744Z,923.24
2017-02-05T09:02:35.133Z,923.18
2017-02-05T09:03:49.495Z,923.18
2017-02-05T09:05:03.880Z,923.15
2017-02-05T09:06:18.244Z,923.17
2017-02-05T09:07:31.999Z,923.18
2017-02-05T09:08:46.358Z,923.2
2017-02-05T09:10:00.697Z,923.23
2017-02-05T09:11:15.075Z,923.22
2017-02-05T09:12:29.450Z,923.24
2017-02-05T09:13:43.814Z,923.24
2017-02-05T09:14:58.192Z,923.25
2017-02-05T09:16:11.902Z,923.29
2017-02-05T09:17:25.639Z,923.25
2017-02-05T09:18:39.413Z,923.23
2017-02-05T09:19:53.784Z,923.25
2017-02-05T09:21:08.190Z,923.25
2017-02-05T09:22:22.603Z,923.27
2017-02-05T09:23:36.967Z,923.29
2017-02-05T09:24:51.347Z,923.29
2017-02-05T09:26:05.690Z,923.26
2017-02-05T09:27:20.059Z,923.27
2017-02-05T09:28:33.784Z,923.26
2017-02-05T09:29:48.128Z,923.27
2017-02-05T09:31:02.448Z,923.28
2017-02-05T09:32:16.806Z,923.26
2017-02-05T09:33:31.214Z,923.25
2017-02-05T09:34:44.957Z,923.25
2017-02-05T09:35:59.349Z,923.25
2017-02-05T09:37:13.721Z,923.3
2017-02-05T09:38:28.086Z,923.3
2017-02-05T09:39:41.778Z,923.36
2017-02-05T09:40:56.151Z,923.37
2017-02-05T09:42:10.517Z,923.41
2017-02-05T09:43:24.869Z,923.36
2017-02-05T09:44:38.571Z,923.4
2017-02-05T09:45:52.930Z,923.39
2017-02-05T09:47:06.655Z,923.4
2017-02-05T09:48:21.034Z,923.47
2017-02-05T09:49:34.771Z,923.51
2017-02-05T09:50:49.135Z,923.53
2017-02-05T09:52:02.869Z,923.55
2017-02-05T09:53:17.274Z,923.54
2017-02-05T09:54:31.612Z,923.54
2017-02-05T09:55:45.357Z,923.56
2017-02-05T09:56:59.711Z,923.59
2017-02-05T09:58:14.079Z,923.53
2017-02-05T09:59:28.471Z,923.57
2017-02-05T10:00:42.823Z,923.55
2017-02-05T10:01:57.203Z,923.54
2017-02-05T10:03:11.558Z,923.59
2017-02-05T10:04:25.940Z,923.66
2017-02-05T10:05:40.295Z,923.58
2017-02-05T10:06:54.706Z,923.58
2017-02-05T10:08:08.446Z,923.55
2017-02-05T10:09:22.791Z,923.53
2017-02-05T10:10:35.884Z,923.56
2017-02-05T10:11:50.239Z,923.55
2017-02-05T10:13:04.601Z,923.54
2017-02-05T10:14:18.346Z,923.58
2017-02-05T10:15:32.703Z,923.57
2017-02-05T10:16:47.048Z,923.59
2017-02-05T10:18:01.437Z,923.59
2017-02-05T10:19:14.530Z,923.59
2017-02-05T10:20:28.868Z,923.54
2017-02-05T10:21:41.981Z,923.59
2017-02-05T10:22:56.416Z,923.52
2017-02-05T10:24:10.769Z,923.54
2017-02-05T10:25:25.498Z,923.53
2017-02-05T10:26:39.263Z,923.51
2017-02-05T10:27:53.613Z,923.53
2017-02-05T10:29:07.983Z,923.48
2017-02-05T10:30:21.694Z,923.49
2017-02-05T10:31:35.465Z,923.49
2017-02-05T10:32:49.811Z,923.48
2017-02-05T10:34:04.164Z,923.48
2017-02-05T10:35:18.763Z,923.5
2017-02-05T10:36:33.170Z,923.49
2017-02-05T10:37:47.526Z,923.52
2017-02-05T10:39:01.900Z,923.56
2017-02-05T10:40:15.637Z,923.58
2017-02-05T10:41:30.042Z,923.57
2017-02-05T10:42:43.785Z,923.58
2017-02-05T10:43:58.170Z,923.6
2017-02-05T10:45:11.870Z,923.64
2017-02-05T10:46:26.467Z,923.64
2017-02-05T10:47:40.861Z,923.65
2017-02-05T10:48:55.257Z,923.65
2017-02-05T10:50:09.654Z,923.7
2017-02-05T10:51:24.056Z,923.71
2017-02-05T10:52:38.446Z,923.8
2017-02-05T10:53:52.824Z,923.83
2017-02-05T10:55:06.559Z,923.79
2017-02-05T10:56:20.940Z,923.79
2017-02-05T10:57:35.319Z,923.77
2017-02-05T10:58:49.726Z,923.79
2017-02-05T11:00:03.465Z,923.79
2017-02-05T11:01:17.189Z,923.74
2017-02-05T11:02:31.566Z,923.78
2017-02-05T11:03:45.316Z,923.83
2017-02-05T11:04:59.647Z,923.84
2017-02-05T11:06:14.022Z,923.78
2017-02-05T11:07:28.423Z,923.82
2017-02-05T11:08:42.122Z,923.87
2017-02-05T11:09:56.525Z,923.87
2017-02-05T11:11:10.897Z,923.85
2017-02-05T11:12:25.288Z,923.87
2017-02-05T11:13:39.709Z,923.87
2017-02-05T11:14:53.499Z,923.92
2017-02-05T11:16:07.231Z,923.94
2017-02-05T11:17:21.632Z,923.92
2017-02-05T11:18:36.018Z,923.95
2017-02-05T11:19:49.731Z,923.95
2017-02-05T11:21:04.123Z,923.91
2017-02-05T11:22:18.509Z,923.88
2017-02-05T11:23:32.890Z,923.92
2017-02-05T11:24:47.242Z,923.97
2017-02-05T11:26:01.606Z,923.99
2017-02-05T11:27:15.940Z,923.99
2017-02-05T11:28:30.340Z,923.96
2017-02-05T11:29:44.720Z,923.96
2017-02-05T11:30:59.139Z,923.98
2017-02-05T11:32:13.512Z,924.01
2017-02-05T11:33:27.890Z,923.96
2017-02-05T11:34:42.293Z,923.99
2017-02-05T11:35:56.647Z,923.98
2017-02-05T11:37:10.976Z,923.96
2017-02-05T11:38:25.355Z,923.93
2017-02-05T11:39:39.095Z,923.93
2017-02-05T11:40:52.831Z,923.94
2017-02-05T11:42:07.223Z,923.96
2017-02-05T11:43:21.621Z,923.95
2017-02-05T11:44:36.048Z,923.98
2017-02-05T11:45:49.785Z,923.94
2017-02-05T11:47:04.165Z,923.91
2017-02-05T11:48:17.872Z,923.98
2017-02-05T11:49:32.243Z,923.96
2017-02-05T11:50:46.619Z,923.94
2017-02-05T11:52:00.966Z,923.95
2017-02-05T11:53:14.692Z,923.98
2017-02-05T11:54:29.053Z,923.95
2017-02-05T11:55:43.787Z,923.98
2017-02-05T11:56:57.501Z,924.01
2017-02-05T11:58:11.271Z,924.04
2017-02-05T11:59:25.648Z,924.07
2017-02-05T12:00:40.015Z,924.07
2017-02-05T12:01:54.419Z,923.99
2017-02-05T12:03:08.139Z,924.06
2017-02-05T12:04:22.511Z,924.05
2017-02-05T12:05:35.613Z,924.06
2017-02-05T12:06:49.348Z,924.03
2017-02-05T12:08:03.736Z,924.02
2017-02-05T12:09:17.506Z,924.07
2017-02-05T12:10:31.851Z,924.05
2017-02-05T12:11:46.233Z,924.05
2017-02-05T12:13:00.609Z,924.03
2017-02-05T12:14:15.048Z,923.99
2017-02-05T12:15:28.768Z,924.01
2017-02-05T12:16:43.131Z,923.95
2017-02-05T12:17:57.482Z,923.92
2017-02-05T12:19:11.870Z,923.92
2017-02-05T12:20:26.243Z,923.93
2017-02-05T12:21:40.657Z,923.93
2017-02-05T12:22:54.420Z,923.94
2017-02-05T12:24:08.797Z,923.97
2017-02-05T12:25:23.129Z,923.86
2017-02-05T12:26:37.539Z,923.91
2017-02-05T12:27:51.911Z,923.93
2017-02-05T12:29:05.675Z,923.91
2017-02-05T12:30:20.083Z,923.89
2017-02-05T12:31:33.828Z,923.91
2017-02-05T12:32:48.199Z,923.94
2017-02-05T12:34:02.599Z,923.97
2017-02-05T12:35:16.976Z,923.99
2017-02-05T12:36:30.693Z,923.97
2017-02-05T12:37:45.065Z,923.96
2017-02-05T12:38:59.430Z,923.96
2017-02-05T12:40:13.796Z,923.94
2017-02-05T12:41:28.148Z,923.98
2017-02-05T12:42:42.532Z,923.94
2017-02-05T12:43:56.265Z,923.93
2017-02-05T12:45:10.644Z,923.82
2017-02-05T12:46:25.017Z,923.92
2017-02-05T12:47:39.415Z,923.93
2017-02-05T12:48:53.825Z,923.9
2017-02-05T12:50:07.538Z,923.93
2017-02-05T12:51:21.323Z,923.94
2017-02-05T12:52:35.700Z,923.9
2017-02-05T12:53:50.041Z,923.89
2017-02-05T12:55:04.405Z,923.9
2017-02-05T12:56:18.143Z,923.85
2017-02-05T12:57:32.500Z,923.97
2017-02-05T12:58:46.221Z,923.9
2017-02-05T13:00:00.596Z,923.92
2017-02-05T13:01:14.978Z,923.93
2017-02-05T13:02:29.325Z,923.87
2017-02-05T13:03:43.735Z,923.96
2017-02-05T13:04:58.123Z,923.89
2017-02-05T13:06:12.580Z,923.91
2017-02-05T13:07:26.966Z,923.91
2017-02-05T13:08:41.322Z,923.96
2017-02-05T13:09:55.701Z,923.9
2017-02-05T13:11:09.431Z,923.85
2017-02-05T13:12:23.841Z,923.82
2017-02-05T13:13:38.222Z,923.89
2017-02-05T13:14:52.613Z,923.82
2017-02-05T13:16:07.013Z,923.81
2017-02-05T13:17:21.450Z,923.88
2017-02-05T13:18:35.873Z,923.9
2017-02-05T13:19:48.964Z,923.92
2017-02-05T13:21:02.711Z,923.9
2017-02-05T13:22:17.112Z,923.94
2017-02-05T13:23:31.487Z,923.88
2017-02-05T13:24:49.711Z,923.92
2017-02-05T13:26:04.065Z,923.88
2017-02-05T13:27:17.754Z,923.91
2017-02-05T13:28:32.099Z,923.92
2017-02-05T13:29:45.830Z,923.89
2017-02-05T13:31:00.194Z,923.89
2017-02-05T13:32:14.568Z,923.88
2017-02-05T13:33:28.958Z,923.89
2017-02-05T13:34:42.707Z,923.93
2017-02-05T13:35:57.068Z,923.94
2017-02-05T13:37:10.774Z,923.98
2017-02-05T13:38:25.130Z,923.95
2017-02-05T13:39:39.447Z,923.97
2017-02-05T13:40:53.867Z,923.94
2017-02-05T13:42:08.273Z,923.95
2017-02-05T13:43:22.047Z,923.88
2017-02-05T13:44:36.429Z,923.93
2017-02-05T13:45:50.847Z,923.9
2017-02-05T13:47:05.224Z,923.86
2017-02-05T13:48:19.657Z,923.84
2017-02-05T13:49:34.047Z,923.86
2017-02-05T13:50:48.419Z,923.82
2017-02-05T13:52:02.772Z,923.82
2017-02-05T13:53:16.480Z,923.76
2017-02-05T13:54:30.823Z,923.78
2017-02-05T13:55:45.245Z,923.8
2017-02-05T13:56:58.956Z,923.81
2017-02-05T13:58:13.346Z,923.81
2017-02-05T13:59:27.725Z,923.78
2017-02-05T14:00:42.071Z,923.77
2017-02-05T14:01:56.420Z,923.75
2017-02-05T14:03:10.805Z,923.75
2017-02-05T14:04:24.573Z,923.72
2017-02-05T14:05:38.333Z,923.75
2017-02-05T14:06:52.687Z,923.74
2017-02-05T14:08:07.116Z,923.67
2017-02-05T14:09:21.459Z,923.72
2017-02-05T14:10:35.817Z,923.67
2017-02-05T14:11:50.295Z,923.63
2017-02-05T14:13:04.053Z,923.65
2017-02-05T14:14:18.450Z,923.55
2017-02-05T14:15:32.790Z,923.61
2017-02-05T14:16:47.162Z,923.55
2017-02-05T14:18:01.520Z,923.56
2017-02-05T14:19:15.259Z,923.53
2017-02-05T14:20:28.987Z,923.57
2017-02-05T14:21:43.374Z,923.6
2017-02-05T14:22:57.779Z,923.49
2017-02-05T14:24:11.497Z,923.49
2017-02-05T14:25:25.917Z,923.48
2017-02-05T14:26:40.302Z,923.47
2017-02-05T14:27:54.672Z,923.48
2017-02-05T14:29:08.414Z,923.51
2017-02-05T14:30:22.788Z,923.48
2017-02-05T14:31:37.207Z,923.38
2017-02-05T14:32:51.024Z,923.47
2017-02-05T14:34:05.403Z,923.4
2017-02-05T14:35:19.803Z,923.42
2017-02-05T14:36:34.191Z,923.34
2017-02-05T14:37:47.946Z,923.33
2017-02-05T14:39:02.340Z,923.34
2017-02-05T14:40:16.758Z,923.31
2017-02-05T14:41:31.150Z,923.36
2017-02-05T14:42:45.492Z,923.34
2017-02-05T14:43:59.880Z,923.33
2017-02-05T14:45:14.278Z,923.2
2017-02-05T14:46:28.633Z,923.33
2017-02-05T14:47:42.386Z,923.24
2017-02-05T14:48:56.107Z,923.33
2017-02-05T14:50:10.473Z,923.32
2017-02-05T14:51:24.888Z,923.3
2017-02-05T14:52:39.278Z,923.26
2017-02-05T14:53:53.695Z,923.33
2017-02-05T14:55:08.069Z,923.3
2017-02-05T14:56:22.414Z,923.22
2017-02-05T14:57:36.784Z,923.31
2017-02-05T14:58:51.147Z,923.22
2017-02-05T15:00:05.551Z,923.11
2017-02-05T15:01:18.728Z,923.21
2017-02-05T15:02:33.103Z,923.13
2017-02-05T15:03:47.585Z,923.23
2017-02-05T15:05:01.959Z,923.14
2017-02-05T15:06:16.344Z,923.19
2017-02-05T15:07:30.757Z,923.15
2017-02-05T15:08:45.147Z,923.12
2017-02-05T15:09:59.539Z,923.13
2017-02-05T15:11:13.929Z,923.13
2017-02-05T15:12:28.279Z,923.05
2017-02-05T15:13:42.644Z,923.08
2017-02-05T15:14:56.397Z,923.1
2017-02-05T15:16:10.775Z,923.03
2017-02-05T15:17:25.119Z,923.07
2017-02-05T15:18:39.508Z,922.99
2017-02-05T15:19:53.867Z,922.9
2017-02-05T15:21:07.627Z,922.97
2017-02-05T15:22:22.052Z,922.96
2017-02-05T15:23:36.405Z,922.92
2017-02-05T15:24:50.809Z,922.91
2017-02-05T15:26:05.183Z,922.91
2017-02-05T15:27:18.959Z,922.87
2017-02-05T15:28:33.320Z,922.84